sensor_id;sensor_type;location;lat;lon;timestamp;P1;durP1;ratioP1;P2;durP2;ratioP2
80623;SDS011;70269;44.768;9.600;2023-06-10T00:00:25;6.38;;;3.50;;
80623;SDS011;70269;44.768;9.600;2023-06-10T00:02:51;6.07;;;3.20;;
80623;SDS011;70269;44.768;9.600;2023-06-10T00:05:16;9.10;;;3.40;;
80623;SDS011;70269;44.768;9.600;2023-06-10T00:07:46;6.80;;;3.20;;
80623;SDS011;70269;44.768;9.600;2023-06-10T00:10:13;6.95;;;3.20;;
80623;SDS011;70269;44.768;9.600;2023-06-10T00:12:38;7.22;;;4.03;;
80623;SDS011;70269;44.768;9.600;2023-06-10T00:15:05;8.80;;;2.92;;
80623;SDS011;70269;44.768;9.600;2023-06-10T00:17:32;6.68;;;3.42;;
80623;SDS011;70269;44.768;9.600;2023-06-10T00:19:58;8.07;;;3.05;;
80623;SDS011;70269;44.768;9.600;2023-06-10T00:22:23;6.85;;;2.95;;
80623;SDS011;70269;44.768;9.600;2023-06-10T00:24:54;5.63;;;2.97;;
80623;SDS011;70269;44.768;9.600;2023-06-10T00:27:21;8.38;;;3.10;;
80623;SDS011;70269;44.768;9.600;2023-06-10T00:29:47;6.55;;;3.10;;
80623;SDS011;70269;44.768;9.600;2023-06-10T00:32:13;6.85;;;3.40;;
80623;SDS011;70269;44.768;9.600;2023-06-10T00:34:38;6.82;;;3.00;;
80623;SDS011;70269;44.768;9.600;2023-06-10T00:37:04;5.38;;;3.00;;
80623;SDS011;70269;44.768;9.600;2023-06-10T00:39:30;4.85;;;2.90;;
80623;SDS011;70269;44.768;9.600;2023-06-10T00:41:55;5.72;;;3.00;;
80623;SDS011;70269;44.768;9.600;2023-06-10T00:44:21;5.53;;;2.90;;
80623;SDS011;70269;44.768;9.600;2023-06-10T00:46:46;5.28;;;3.05;;
80623;SDS011;70269;44.768;9.600;2023-06-10T00:49:12;9.15;;;3.38;;
80623;SDS011;70269;44.768;9.600;2023-06-10T00:51:38;5.72;;;3.17;;
80623;SDS011;70269;44.768;9.600;2023-06-10T00:54:05;9.07;;;3.53;;
80623;SDS011;70269;44.768;9.600;2023-06-10T00:56:32;7.40;;;3.00;;
80623;SDS011;70269;44.768;9.600;2023-06-10T00:59:00;6.82;;;2.97;;
80623;SDS011;70269;44.768;9.600;2023-06-10T01:01:27;6.43;;;2.83;;
80623;SDS011;70269;44.768;9.600;2023-06-10T01:03:54;5.70;;;2.97;;
80623;SDS011;70269;44.768;9.600;2023-06-10T01:06:33;5.72;;;2.90;;
80623;SDS011;70269;44.768;9.600;2023-06-10T01:09:26;5.78;;;3.08;;
80623;SDS011;70269;44.768;9.600;2023-06-10T01:14:46;6.78;;;2.78;;
80623;SDS011;70269;44.768;9.600;2023-06-10T01:17:13;6.25;;;3.33;;
80623;SDS011;70269;44.768;9.600;2023-06-10T01:19:41;5.72;;;3.03;;
80623;SDS011;70269;44.768;9.600;2023-06-10T01:22:09;5.07;;;3.05;;
80623;SDS011;70269;44.768;9.600;2023-06-10T01:24:36;4.90;;;2.67;;
80623;SDS011;70269;44.768;9.600;2023-06-10T01:27:06;7.68;;;3.13;;
80623;SDS011;70269;44.768;9.600;2023-06-10T01:29:46;5.45;;;2.78;;
80623;SDS011;70269;44.768;9.600;2023-06-10T01:32:32;9.60;;;3.00;;
80623;SDS011;70269;44.768;9.600;2023-06-10T01:35:02;5.95;;;3.00;;
80623;SDS011;70269;44.768;9.600;2023-06-10T01:37:30;8.65;;;3.10;;
80623;SDS011;70269;44.768;9.600;2023-06-10T01:39:57;6.68;;;3.55;;
80623;SDS011;70269;44.768;9.600;2023-06-10T01:42:24;8.48;;;3.22;;
80623;SDS011;70269;44.768;9.600;2023-06-10T01:44:59;6.22;;;3.00;;
80623;SDS011;70269;44.768;9.600;2023-06-10T01:47:25;6.10;;;3.30;;
80623;SDS011;70269;44.768;9.600;2023-06-10T01:49:51;7.55;;;3.17;;
80623;SDS011;70269;44.768;9.600;2023-06-10T01:52:17;9.77;;;3.50;;
80623;SDS011;70269;44.768;9.600;2023-06-10T01:54:43;6.93;;;2.85;;
80623;SDS011;70269;44.768;9.600;2023-06-10T01:57:08;6.10;;;3.15;;
80623;SDS011;70269;44.768;9.600;2023-06-10T01:59:35;6.07;;;3.25;;
80623;SDS011;70269;44.768;9.600;2023-06-10T02:02:02;6.20;;;3.20;;
80623;SDS011;70269;44.768;9.600;2023-06-10T02:04:27;7.40;;;3.28;;
80623;SDS011;70269;44.768;9.600;2023-06-10T02:06:53;6.28;;;3.08;;
80623;SDS011;70269;44.768;9.600;2023-06-10T02:09:20;6.72;;;3.20;;
80623;SDS011;70269;44.768;9.600;2023-06-10T02:11:46;7.15;;;3.13;;
80623;SDS011;70269;44.768;9.600;2023-06-10T02:14:12;7.93;;;3.50;;
80623;SDS011;70269;44.768;9.600;2023-06-10T02:16:37;4.88;;;2.85;;
80623;SDS011;70269;44.768;9.600;2023-06-10T02:19:04;6.65;;;3.28;;
80623;SDS011;70269;44.768;9.600;2023-06-10T02:21:31;8.48;;;3.10;;
80623;SDS011;70269;44.768;9.600;2023-06-10T02:23:57;6.75;;;3.35;;
80623;SDS011;70269;44.768;9.600;2023-06-10T02:26:23;5.50;;;3.33;;
80623;SDS011;70269;44.768;9.600;2023-06-10T02:28:51;6.72;;;3.40;;
80623;SDS011;70269;44.768;9.600;2023-06-10T02:31:17;9.00;;;3.70;;
80623;SDS011;70269;44.768;9.600;2023-06-10T02:33:43;6.63;;;3.15;;
80623;SDS011;70269;44.768;9.600;2023-06-10T02:36:10;6.70;;;3.22;;
80623;SDS011;70269;44.768;9.600;2023-06-10T02:38:40;6.05;;;2.42;;
80623;SDS011;70269;44.768;9.600;2023-06-10T02:41:06;8.45;;;3.38;;
80623;SDS011;70269;44.768;9.600;2023-06-10T02:43:32;7.85;;;3.58;;
80623;SDS011;70269;44.768;9.600;2023-06-10T02:45:58;8.20;;;3.42;;
80623;SDS011;70269;44.768;9.600;2023-06-10T02:48:24;7.40;;;3.40;;
80623;SDS011;70269;44.768;9.600;2023-06-10T02:50:50;5.80;;;2.58;;
80623;SDS011;70269;44.768;9.600;2023-06-10T02:53:25;6.20;;;3.10;;
80623;SDS011;70269;44.768;9.600;2023-06-10T02:55:57;7.55;;;3.45;;
80623;SDS011;70269;44.768;9.600;2023-06-10T02:58:22;7.18;;;2.85;;
80623;SDS011;70269;44.768;9.600;2023-06-10T03:00:48;8.00;;;3.03;;
80623;SDS011;70269;44.768;9.600;2023-06-10T03:03:14;9.80;;;3.55;;
80623;SDS011;70269;44.768;9.600;2023-06-10T03:05:51;7.78;;;3.05;;
80623;SDS011;70269;44.768;9.600;2023-06-10T03:08:19;5.22;;;2.70;;
80623;SDS011;70269;44.768;9.600;2023-06-10T03:10:45;6.57;;;2.65;;
80623;SDS011;70269;44.768;9.600;2023-06-10T03:13:15;5.78;;;3.33;;
80623;SDS011;70269;44.768;9.600;2023-06-10T03:15:40;6.72;;;3.13;;
80623;SDS011;70269;44.768;9.600;2023-06-10T03:18:09;6.65;;;2.95;;
80623;SDS011;70269;44.768;9.600;2023-06-10T03:20:35;7.25;;;2.55;;
80623;SDS011;70269;44.768;9.600;2023-06-10T03:23:06;10.57;;;3.25;;
80623;SDS011;70269;44.768;9.600;2023-06-10T03:25:33;5.85;;;3.10;;
80623;SDS011;70269;44.768;9.600;2023-06-10T03:27:58;5.65;;;3.20;;
80623;SDS011;70269;44.768;9.600;2023-06-10T03:30:24;5.28;;;2.67;;
80623;SDS011;70269;44.768;9.600;2023-06-10T03:32:50;5.75;;;2.85;;
80623;SDS011;70269;44.768;9.600;2023-06-10T03:37:45;6.32;;;2.70;;
80623;SDS011;70269;44.768;9.600;2023-06-10T03:40:10;7.45;;;3.05;;
80623;SDS011;70269;44.768;9.600;2023-06-10T03:42:39;6.53;;;2.92;;
80623;SDS011;70269;44.768;9.600;2023-06-10T03:45:06;6.38;;;3.08;;
80623;SDS011;70269;44.768;9.600;2023-06-10T03:47:34;5.53;;;2.67;;
80623;SDS011;70269;44.768;9.600;2023-06-10T03:50:02;7.53;;;3.05;;
80623;SDS011;70269;44.768;9.600;2023-06-10T03:52:30;7.30;;;2.60;;
80623;SDS011;70269;44.768;9.600;2023-06-10T03:54:55;6.68;;;3.00;;
80623;SDS011;70269;44.768;9.600;2023-06-10T03:57:21;4.90;;;2.50;;
80623;SDS011;70269;44.768;9.600;2023-06-10T03:59:47;6.40;;;3.63;;
80623;SDS011;70269;44.768;9.600;2023-06-10T04:02:13;7.05;;;2.58;;
80623;SDS011;70269;44.768;9.600;2023-06-10T04:04:38;5.72;;;2.83;;
80623;SDS011;70269;44.768;9.600;2023-06-10T04:07:04;6.47;;;2.70;;
80623;SDS011;70269;44.768;9.600;2023-06-10T04:09:30;6.30;;;2.78;;
80623;SDS011;70269;44.768;9.600;2023-06-10T04:11:56;5.25;;;2.90;;
80623;SDS011;70269;44.768;9.600;2023-06-10T04:14:21;7.63;;;2.65;;
80623;SDS011;70269;44.768;9.600;2023-06-10T04:16:47;5.45;;;2.85;;
80623;SDS011;70269;44.768;9.600;2023-06-10T04:19:13;5.85;;;2.38;;
80623;SDS011;70269;44.768;9.600;2023-06-10T04:21:38;6.00;;;2.80;;
80623;SDS011;70269;44.768;9.600;2023-06-10T04:24:04;5.82;;;3.05;;
80623;SDS011;70269;44.768;9.600;2023-06-10T04:26:31;7.55;;;2.80;;
80623;SDS011;70269;44.768;9.600;2023-06-10T04:28:56;5.38;;;2.55;;
80623;SDS011;70269;44.768;9.600;2023-06-10T04:31:22;6.78;;;2.85;;
80623;SDS011;70269;44.768;9.600;2023-06-10T04:33:48;4.68;;;2.60;;
80623;SDS011;70269;44.768;9.600;2023-06-10T04:36:14;5.80;;;3.17;;
80623;SDS011;70269;44.768;9.600;2023-06-10T04:38:40;4.97;;;2.78;;
80623;SDS011;70269;44.768;9.600;2023-06-10T04:41:07;6.70;;;3.10;;
80623;SDS011;70269;44.768;9.600;2023-06-10T04:43:34;4.97;;;2.53;;
80623;SDS011;70269;44.768;9.600;2023-06-10T04:46:00;7.13;;;3.05;;
80623;SDS011;70269;44.768;9.600;2023-06-10T04:48:27;6.57;;;2.58;;
80623;SDS011;70269;44.768;9.600;2023-06-10T04:50:53;5.45;;;3.13;;
80623;SDS011;70269;44.768;9.600;2023-06-10T04:53:18;6.93;;;3.33;;
80623;SDS011;70269;44.768;9.600;2023-06-10T04:55:46;7.03;;;3.28;;
80623;SDS011;70269;44.768;9.600;2023-06-10T04:58:11;5.75;;;2.80;;
80623;SDS011;70269;44.768;9.600;2023-06-10T05:00:37;4.97;;;2.88;;
80623;SDS011;70269;44.768;9.600;2023-06-10T05:03:03;5.18;;;2.60;;
80623;SDS011;70269;44.768;9.600;2023-06-10T05:05:28;8.52;;;3.55;;
80623;SDS011;70269;44.768;9.600;2023-06-10T05:07:54;5.93;;;3.63;;
80623;SDS011;70269;44.768;9.600;2023-06-10T05:10:19;5.95;;;3.28;;
80623;SDS011;70269;44.768;9.600;2023-06-10T05:12:46;5.68;;;2.85;;
80623;SDS011;70269;44.768;9.600;2023-06-10T05:15:11;5.47;;;2.83;;
80623;SDS011;70269;44.768;9.600;2023-06-10T05:17:37;9.30;;;5.15;;
80623;SDS011;70269;44.768;9.600;2023-06-10T05:20:03;8.60;;;4.50;;
80623;SDS011;70269;44.768;9.600;2023-06-10T05:22:29;6.22;;;4.07;;
80623;SDS011;70269;44.768;9.600;2023-06-10T05:24:55;5.90;;;3.72;;
80623;SDS011;70269;44.768;9.600;2023-06-10T05:27:20;5.88;;;2.88;;
80623;SDS011;70269;44.768;9.600;2023-06-10T05:29:47;6.97;;;3.17;;
80623;SDS011;70269;44.768;9.600;2023-06-10T05:32:12;6.68;;;3.35;;
80623;SDS011;70269;44.768;9.600;2023-06-10T05:34:38;6.40;;;2.70;;
80623;SDS011;70269;44.768;9.600;2023-06-10T05:37:04;6.68;;;2.85;;
80623;SDS011;70269;44.768;9.600;2023-06-10T05:39:31;5.18;;;2.80;;
80623;SDS011;70269;44.768;9.600;2023-06-10T05:41:57;8.20;;;2.72;;
80623;SDS011;70269;44.768;9.600;2023-06-10T05:44:24;6.97;;;3.08;;
80623;SDS011;70269;44.768;9.600;2023-06-10T05:46:50;5.63;;;2.42;;
80623;SDS011;70269;44.768;9.600;2023-06-10T05:49:16;4.72;;;2.42;;
80623;SDS011;70269;44.768;9.600;2023-06-10T05:51:41;7.30;;;2.92;;
80623;SDS011;70269;44.768;9.600;2023-06-10T05:54:07;7.80;;;2.70;;
80623;SDS011;70269;44.768;9.600;2023-06-10T05:56:32;4.50;;;2.53;;
80623;SDS011;70269;44.768;9.600;2023-06-10T05:58:58;5.97;;;3.10;;
80623;SDS011;70269;44.768;9.600;2023-06-10T06:01:24;8.05;;;2.60;;
80623;SDS011;70269;44.768;9.600;2023-06-10T06:03:50;6.00;;;2.53;;
80623;SDS011;70269;44.768;9.600;2023-06-10T06:06:15;5.25;;;2.88;;
80623;SDS011;70269;44.768;9.600;2023-06-10T06:08:41;5.25;;;2.60;;
80623;SDS011;70269;44.768;9.600;2023-06-10T06:11:07;7.72;;;2.97;;
80623;SDS011;70269;44.768;9.600;2023-06-10T06:13:32;6.55;;;2.85;;
80623;SDS011;70269;44.768;9.600;2023-06-10T06:15:58;4.75;;;3.00;;
80623;SDS011;70269;44.768;9.600;2023-06-10T06:18:23;5.82;;;2.78;;
80623;SDS011;70269;44.768;9.600;2023-06-10T06:20:50;5.15;;;2.60;;
80623;SDS011;70269;44.768;9.600;2023-06-10T06:23:15;4.93;;;2.90;;
80623;SDS011;70269;44.768;9.600;2023-06-10T06:25:41;5.40;;;2.67;;
80623;SDS011;70269;44.768;9.600;2023-06-10T06:28:07;6.93;;;3.30;;
80623;SDS011;70269;44.768;9.600;2023-06-10T06:30:35;5.18;;;2.80;;
80623;SDS011;70269;44.768;9.600;2023-06-10T06:33:01;8.82;;;3.08;;
80623;SDS011;70269;44.768;9.600;2023-06-10T06:35:27;5.53;;;2.35;;
80623;SDS011;70269;44.768;9.600;2023-06-10T06:37:52;6.00;;;2.92;;
80623;SDS011;70269;44.768;9.600;2023-06-10T06:40:24;5.57;;;2.72;;
80623;SDS011;70269;44.768;9.600;2023-06-10T06:42:49;4.63;;;2.40;;
80623;SDS011;70269;44.768;9.600;2023-06-10T06:45:28;4.43;;;2.53;;
80623;SDS011;70269;44.768;9.600;2023-06-10T06:47:53;5.10;;;2.63;;
80623;SDS011;70269;44.768;9.600;2023-06-10T06:50:20;5.35;;;2.80;;
80623;SDS011;70269;44.768;9.600;2023-06-10T06:52:46;5.90;;;2.88;;
80623;SDS011;70269;44.768;9.600;2023-06-10T06:55:12;5.13;;;2.42;;
80623;SDS011;70269;44.768;9.600;2023-06-10T06:57:37;5.35;;;2.38;;
80623;SDS011;70269;44.768;9.600;2023-06-10T07:00:03;5.47;;;2.50;;
80623;SDS011;70269;44.768;9.600;2023-06-10T07:02:29;5.70;;;2.92;;
80623;SDS011;70269;44.768;9.600;2023-06-10T07:04:57;5.78;;;2.63;;
80623;SDS011;70269;44.768;9.600;2023-06-10T07:07:23;5.43;;;2.70;;
80623;SDS011;70269;44.768;9.600;2023-06-10T07:09:49;6.80;;;2.80;;
80623;SDS011;70269;44.768;9.600;2023-06-10T07:12:15;4.95;;;2.75;;
80623;SDS011;70269;44.768;9.600;2023-06-10T07:14:40;6.15;;;2.80;;
80623;SDS011;70269;44.768;9.600;2023-06-10T07:17:06;6.75;;;3.00;;
80623;SDS011;70269;44.768;9.600;2023-06-10T07:19:32;8.30;;;2.78;;
80623;SDS011;70269;44.768;9.600;2023-06-10T07:21:57;5.63;;;3.03;;
80623;SDS011;70269;44.768;9.600;2023-06-10T07:24:23;7.30;;;3.10;;
80623;SDS011;70269;44.768;9.600;2023-06-10T07:26:50;4.50;;;3.00;;
80623;SDS011;70269;44.768;9.600;2023-06-10T07:29:15;6.63;;;2.80;;
80623;SDS011;70269;44.768;9.600;2023-06-10T07:31:41;4.95;;;2.65;;
80623;SDS011;70269;44.768;9.600;2023-06-10T07:34:07;7.15;;;3.10;;
80623;SDS011;70269;44.768;9.600;2023-06-10T07:36:33;5.82;;;2.80;;
80623;SDS011;70269;44.768;9.600;2023-06-10T07:38:58;7.05;;;2.78;;
80623;SDS011;70269;44.768;9.600;2023-06-10T07:41:24;5.82;;;2.72;;
80623;SDS011;70269;44.768;9.600;2023-06-10T07:43:50;5.03;;;2.83;;
80623;SDS011;70269;44.768;9.600;2023-06-10T07:46:20;5.18;;;2.47;;
80623;SDS011;70269;44.768;9.600;2023-06-10T07:48:46;6.38;;;2.55;;
80623;SDS011;70269;44.768;9.600;2023-06-10T07:51:12;6.40;;;2.80;;
80623;SDS011;70269;44.768;9.600;2023-06-10T07:53:38;7.65;;;2.60;;
80623;SDS011;70269;44.768;9.600;2023-06-10T07:56:03;5.03;;;2.67;;
80623;SDS011;70269;44.768;9.600;2023-06-10T07:58:29;8.60;;;3.05;;
80623;SDS011;70269;44.768;9.600;2023-06-10T08:00:54;6.70;;;2.95;;
80623;SDS011;70269;44.768;9.600;2023-06-10T08:03:20;6.85;;;2.88;;
80623;SDS011;70269;44.768;9.600;2023-06-10T08:05:45;6.22;;;3.03;;
80623;SDS011;70269;44.768;9.600;2023-06-10T08:08:11;6.85;;;2.90;;
80623;SDS011;70269;44.768;9.600;2023-06-10T08:10:38;7.05;;;2.60;;
80623;SDS011;70269;44.768;9.600;2023-06-10T08:13:04;6.45;;;2.50;;
80623;SDS011;70269;44.768;9.600;2023-06-10T08:15:29;4.82;;;2.33;;
80623;SDS011;70269;44.768;9.600;2023-06-10T08:17:55;6.10;;;2.42;;
80623;SDS011;70269;44.768;9.600;2023-06-10T08:20:21;7.30;;;3.13;;
80623;SDS011;70269;44.768;9.600;2023-06-10T08:22:47;8.52;;;2.75;;
80623;SDS011;70269;44.768;9.600;2023-06-10T08:25:13;5.68;;;2.25;;
80623;SDS011;70269;44.768;9.600;2023-06-10T08:27:38;4.50;;;2.92;;
80623;SDS011;70269;44.768;9.600;2023-06-10T08:30:04;6.47;;;3.05;;
80623;SDS011;70269;44.768;9.600;2023-06-10T08:32:30;8.23;;;2.65;;
80623;SDS011;70269;44.768;9.600;2023-06-10T08:34:56;7.60;;;3.00;;
80623;SDS011;70269;44.768;9.600;2023-06-10T08:37:21;7.13;;;3.42;;
80623;SDS011;70269;44.768;9.600;2023-06-10T08:39:47;7.88;;;3.00;;
80623;SDS011;70269;44.768;9.600;2023-06-10T08:44:54;7.68;;;3.08;;
80623;SDS011;70269;44.768;9.600;2023-06-10T08:47:22;6.32;;;3.22;;
80623;SDS011;70269;44.768;9.600;2023-06-10T08:49:49;8.48;;;3.72;;
80623;SDS011;70269;44.768;9.600;2023-06-10T08:52:16;6.10;;;3.00;;
80623;SDS011;70269;44.768;9.600;2023-06-10T08:54:43;8.07;;;3.15;;
80623;SDS011;70269;44.768;9.600;2023-06-10T08:57:21;6.97;;;3.63;;
80623;SDS011;70269;44.768;9.600;2023-06-10T08:59:48;5.40;;;2.75;;
80623;SDS011;70269;44.768;9.600;2023-06-10T09:02:14;6.35;;;2.45;;
80623;SDS011;70269;44.768;9.600;2023-06-10T09:04:43;6.13;;;2.60;;
80623;SDS011;70269;44.768;9.600;2023-06-10T09:07:11;5.10;;;2.15;;
80623;SDS011;70269;44.768;9.600;2023-06-10T09:09:39;5.32;;;2.28;;
80623;SDS011;70269;44.768;9.600;2023-06-10T09:12:07;5.90;;;2.60;;
80623;SDS011;70269;44.768;9.600;2023-06-10T09:14:33;5.50;;;2.40;;
80623;SDS011;70269;44.768;9.600;2023-06-10T09:16:59;4.40;;;2.47;;
80623;SDS011;70269;44.768;9.600;2023-06-10T09:19:28;5.38;;;2.45;;
80623;SDS011;70269;44.768;9.600;2023-06-10T09:21:54;5.35;;;2.30;;
80623;SDS011;70269;44.768;9.600;2023-06-10T09:24:22;5.88;;;2.40;;
80623;SDS011;70269;44.768;9.600;2023-06-10T09:26:49;5.53;;;2.50;;
80623;SDS011;70269;44.768;9.600;2023-06-10T09:29:16;4.75;;;2.15;;
80623;SDS011;70269;44.768;9.600;2023-06-10T09:31:42;3.85;;;2.17;;
80623;SDS011;70269;44.768;9.600;2023-06-10T09:34:13;4.70;;;2.08;;
80623;SDS011;70269;44.768;9.600;2023-06-10T09:36:40;3.30;;;1.40;;
80623;SDS011;70269;44.768;9.600;2023-06-10T09:39:16;6.38;;;2.53;;
80623;SDS011;70269;44.768;9.600;2023-06-10T09:41:43;5.00;;;1.63;;
80623;SDS011;70269;44.768;9.600;2023-06-10T09:44:13;4.28;;;1.85;;
80623;SDS011;70269;44.768;9.600;2023-06-10T09:46:47;5.20;;;2.33;;
80623;SDS011;70269;44.768;9.600;2023-06-10T09:49:15;4.93;;;1.90;;
80623;SDS011;70269;44.768;9.600;2023-06-10T09:51:54;6.35;;;2.13;;
80623;SDS011;70269;44.768;9.600;2023-06-10T09:54:20;4.13;;;2.25;;
80623;SDS011;70269;44.768;9.600;2023-06-10T09:56:56;5.72;;;2.28;;
80623;SDS011;70269;44.768;9.600;2023-06-10T09:59:30;5.72;;;2.15;;
80623;SDS011;70269;44.768;9.600;2023-06-10T10:01:57;7.13;;;2.40;;
80623;SDS011;70269;44.768;9.600;2023-06-10T10:04:23;5.28;;;2.33;;
80623;SDS011;70269;44.768;9.600;2023-06-10T10:06:50;5.88;;;2.20;;
80623;SDS011;70269;44.768;9.600;2023-06-10T10:09:15;5.88;;;2.83;;
80623;SDS011;70269;44.768;9.600;2023-06-10T10:11:41;4.22;;;1.90;;
80623;SDS011;70269;44.768;9.600;2023-06-10T10:14:09;5.15;;;2.22;;
80623;SDS011;70269;44.768;9.600;2023-06-10T10:16:40;7.32;;;2.42;;
80623;SDS011;70269;44.768;9.600;2023-06-10T10:19:12;5.03;;;2.38;;
80623;SDS011;70269;44.768;9.600;2023-06-10T10:21:49;5.05;;;1.70;;
80623;SDS011;70269;44.768;9.600;2023-06-10T10:26:51;5.47;;;2.05;;
80623;SDS011;70269;44.768;9.600;2023-06-10T10:29:29;5.03;;;2.10;;
80623;SDS011;70269;44.768;9.600;2023-06-10T10:31:59;5.95;;;2.15;;
80623;SDS011;70269;44.768;9.600;2023-06-10T10:34:36;4.85;;;2.00;;
80623;SDS011;70269;44.768;9.600;2023-06-10T10:37:07;5.82;;;2.22;;
80623;SDS011;70269;44.768;9.600;2023-06-10T10:39:33;5.20;;;2.47;;
80623;SDS011;70269;44.768;9.600;2023-06-10T10:42:01;5.22;;;2.33;;
80623;SDS011;70269;44.768;9.600;2023-06-10T10:44:29;6.70;;;2.30;;
80623;SDS011;70269;44.768;9.600;2023-06-10T10:46:55;5.43;;;2.00;;
80623;SDS011;70269;44.768;9.600;2023-06-10T10:49:22;7.20;;;2.35;;
80623;SDS011;70269;44.768;9.600;2023-06-10T10:54:27;6.45;;;2.30;;
80623;SDS011;70269;44.768;9.600;2023-06-10T10:57:15;4.72;;;2.53;;
80623;SDS011;70269;44.768;9.600;2023-06-10T11:04:58;8.02;;;2.38;;
80623;SDS011;70269;44.768;9.600;2023-06-10T11:07:25;8.30;;;2.42;;
80623;SDS011;70269;44.768;9.600;2023-06-10T11:10:01;4.85;;;2.50;;
80623;SDS011;70269;44.768;9.600;2023-06-10T11:12:50;6.43;;;2.67;;
80623;SDS011;70269;44.768;9.600;2023-06-10T11:15:20;6.60;;;2.97;;
80623;SDS011;70269;44.768;9.600;2023-06-10T11:29:03;5.00;;;2.30;;
80623;SDS011;70269;44.768;9.600;2023-06-10T11:31:29;5.72;;;2.40;;
80623;SDS011;70269;44.768;9.600;2023-06-10T11:33:59;4.88;;;2.20;;
80623;SDS011;70269;44.768;9.600;2023-06-10T11:36:27;5.85;;;2.60;;
80623;SDS011;70269;44.768;9.600;2023-06-10T11:38:57;5.57;;;2.38;;
80623;SDS011;70269;44.768;9.600;2023-06-10T11:41:24;7.80;;;2.55;;
80623;SDS011;70269;44.768;9.600;2023-06-10T11:43:52;12.32;;;3.97;;
80623;SDS011;70269;44.768;9.600;2023-06-10T11:46:21;5.55;;;2.20;;
80623;SDS011;70269;44.768;9.600;2023-06-10T11:48:52;5.22;;;2.20;;
80623;SDS011;70269;44.768;9.600;2023-06-10T11:51:19;5.53;;;2.40;;
80623;SDS011;70269;44.768;9.600;2023-06-10T11:53:45;9.60;;;2.58;;
80623;SDS011;70269;44.768;9.600;2023-06-10T11:58:51;5.55;;;2.55;;
80623;SDS011;70269;44.768;9.600;2023-06-10T12:01:23;5.05;;;2.92;;
80623;SDS011;70269;44.768;9.600;2023-06-10T12:04:01;6.20;;;2.60;;
80623;SDS011;70269;44.768;9.600;2023-06-10T12:06:44;7.82;;;2.45;;
80623;SDS011;70269;44.768;9.600;2023-06-10T12:11:40;5.97;;;2.60;;
80623;SDS011;70269;44.768;9.600;2023-06-10T12:14:07;6.40;;;2.22;;
80623;SDS011;70269;44.768;9.600;2023-06-10T12:16:32;5.78;;;2.55;;
80623;SDS011;70269;44.768;9.600;2023-06-10T12:19:04;5.60;;;3.10;;
80623;SDS011;70269;44.768;9.600;2023-06-10T12:21:32;6.00;;;3.05;;
80623;SDS011;70269;44.768;9.600;2023-06-10T12:24:04;3.78;;;2.22;;
80623;SDS011;70269;44.768;9.600;2023-06-10T12:26:35;6.00;;;2.50;;
80623;SDS011;70269;44.768;9.600;2023-06-10T12:29:01;6.07;;;2.65;;
80623;SDS011;70269;44.768;9.600;2023-06-10T12:31:53;6.28;;;2.55;;
80623;SDS011;70269;44.768;9.600;2023-06-10T12:34:19;6.80;;;2.40;;
80623;SDS011;70269;44.768;9.600;2023-06-10T12:36:48;6.95;;;2.40;;
80623;SDS011;70269;44.768;9.600;2023-06-10T12:39:14;5.47;;;2.58;;
80623;SDS011;70269;44.768;9.600;2023-06-10T12:41:40;9.18;;;2.55;;
80623;SDS011;70269;44.768;9.600;2023-06-10T12:44:11;6.40;;;2.67;;
80623;SDS011;70269;44.768;9.600;2023-06-10T12:46:37;8.05;;;2.72;;
80623;SDS011;70269;44.768;9.600;2023-06-10T12:49:03;5.25;;;2.53;;
80623;SDS011;70269;44.768;9.600;2023-06-10T12:51:28;5.13;;;2.33;;
80623;SDS011;70269;44.768;9.600;2023-06-10T12:53:54;4.97;;;2.63;;
80623;SDS011;70269;44.768;9.600;2023-06-10T12:56:20;5.13;;;1.92;;
80623;SDS011;70269;44.768;9.600;2023-06-10T12:58:47;9.23;;;2.65;;
80623;SDS011;70269;44.768;9.600;2023-06-10T13:01:13;7.25;;;2.97;;
80623;SDS011;70269;44.768;9.600;2023-06-10T13:03:38;6.57;;;2.30;;
80623;SDS011;70269;44.768;9.600;2023-06-10T13:06:05;10.85;;;2.47;;
80623;SDS011;70269;44.768;9.600;2023-06-10T13:08:31;5.40;;;2.40;;
80623;SDS011;70269;44.768;9.600;2023-06-10T13:10:57;4.90;;;2.50;;
80623;SDS011;70269;44.768;9.600;2023-06-10T13:13:23;6.50;;;2.42;;
80623;SDS011;70269;44.768;9.600;2023-06-10T13:15:49;7.35;;;2.60;;
80623;SDS011;70269;44.768;9.600;2023-06-10T13:18:15;6.20;;;2.70;;
80623;SDS011;70269;44.768;9.600;2023-06-10T13:20:43;6.60;;;2.50;;
80623;SDS011;70269;44.768;9.600;2023-06-10T13:23:08;7.18;;;3.00;;
80623;SDS011;70269;44.768;9.600;2023-06-10T13:25:34;4.65;;;2.38;;
80623;SDS011;70269;44.768;9.600;2023-06-10T13:28:00;7.75;;;2.42;;
80623;SDS011;70269;44.768;9.600;2023-06-10T13:30:26;4.85;;;2.20;;
80623;SDS011;70269;44.768;9.600;2023-06-10T13:32:51;6.05;;;2.33;;
80623;SDS011;70269;44.768;9.600;2023-06-10T13:35:17;7.88;;;2.20;;
80623;SDS011;70269;44.768;9.600;2023-06-10T13:37:43;4.63;;;2.10;;
80623;SDS011;70269;44.768;9.600;2023-06-10T13:40:08;7.30;;;2.47;;
80623;SDS011;70269;44.768;9.600;2023-06-10T13:42:35;5.93;;;2.22;;
80623;SDS011;70269;44.768;9.600;2023-06-10T13:45:01;6.00;;;2.30;;
80623;SDS011;70269;44.768;9.600;2023-06-10T13:47:30;5.60;;;2.63;;
80623;SDS011;70269;44.768;9.600;2023-06-10T13:49:55;5.43;;;2.40;;
80623;SDS011;70269;44.768;9.600;2023-06-10T13:52:21;7.15;;;2.60;;
80623;SDS011;70269;44.768;9.600;2023-06-10T13:54:47;7.60;;;2.60;;
80623;SDS011;70269;44.768;9.600;2023-06-10T13:57:12;5.05;;;2.17;;
80623;SDS011;70269;44.768;9.600;2023-06-10T13:59:38;7.78;;;2.70;;
80623;SDS011;70269;44.768;9.600;2023-06-10T14:02:03;6.47;;;2.65;;
80623;SDS011;70269;44.768;9.600;2023-06-10T14:04:30;4.93;;;2.47;;
80623;SDS011;70269;44.768;9.600;2023-06-10T14:06:56;5.90;;;2.35;;
80623;SDS011;70269;44.768;9.600;2023-06-10T14:09:22;6.13;;;2.60;;
80623;SDS011;70269;44.768;9.600;2023-06-10T14:11:48;6.57;;;2.40;;
80623;SDS011;70269;44.768;9.600;2023-06-10T14:14:13;7.03;;;1.90;;
80623;SDS011;70269;44.768;9.600;2023-06-10T14:16:40;5.30;;;2.00;;
80623;SDS011;70269;44.768;9.600;2023-06-10T14:19:05;6.07;;;2.28;;
80623;SDS011;70269;44.768;9.600;2023-06-10T14:21:31;5.65;;;2.10;;
80623;SDS011;70269;44.768;9.600;2023-06-10T14:23:56;5.97;;;2.13;;
80623;SDS011;70269;44.768;9.600;2023-06-10T14:26:22;4.35;;;1.70;;
80623;SDS011;70269;44.768;9.600;2023-06-10T14:28:48;5.75;;;2.25;;
80623;SDS011;70269;44.768;9.600;2023-06-10T14:31:15;5.28;;;2.20;;
80623;SDS011;70269;44.768;9.600;2023-06-10T14:33:40;5.65;;;1.90;;
80623;SDS011;70269;44.768;9.600;2023-06-10T14:36:08;7.32;;;2.05;;
80623;SDS011;70269;44.768;9.600;2023-06-10T14:38:34;5.43;;;2.08;;
80623;SDS011;70269;44.768;9.600;2023-06-10T14:40:59;6.25;;;2.30;;
80623;SDS011;70269;44.768;9.600;2023-06-10T14:43:25;5.30;;;2.22;;
80623;SDS011;70269;44.768;9.600;2023-06-10T14:45:51;4.45;;;1.85;;
80623;SDS011;70269;44.768;9.600;2023-06-10T14:48:16;5.22;;;2.17;;
80623;SDS011;70269;44.768;9.600;2023-06-10T14:50:42;4.18;;;1.30;;
80623;SDS011;70269;44.768;9.600;2023-06-10T14:53:10;5.75;;;1.88;;
80623;SDS011;70269;44.768;9.600;2023-06-10T14:55:36;4.43;;;1.60;;
80623;SDS011;70269;44.768;9.600;2023-06-10T14:58:01;4.25;;;1.58;;
80623;SDS011;70269;44.768;9.600;2023-06-10T15:00:27;4.03;;;1.70;;
80623;SDS011;70269;44.768;9.600;2023-06-10T15:02:52;5.13;;;1.85;;
80623;SDS011;70269;44.768;9.600;2023-06-10T15:05:20;4.43;;;1.75;;
80623;SDS011;70269;44.768;9.600;2023-06-10T15:07:46;6.18;;;2.20;;
80623;SDS011;70269;44.768;9.600;2023-06-10T15:10:13;5.38;;;1.98;;
80623;SDS011;70269;44.768;9.600;2023-06-10T15:12:38;4.95;;;1.73;;
80623;SDS011;70269;44.768;9.600;2023-06-10T15:15:04;4.00;;;1.60;;
80623;SDS011;70269;44.768;9.600;2023-06-10T15:17:30;3.80;;;1.75;;
80623;SDS011;70269;44.768;9.600;2023-06-10T15:19:56;5.47;;;1.60;;
80623;SDS011;70269;44.768;9.600;2023-06-10T15:22:21;4.80;;;1.50;;